createdAt,value
2023-02-28T00:00:38.885Z,9.03
2023-02-28T00:03:05.836Z,7.97
2023-02-28T00:05:33.266Z,8.47
2023-02-28T00:08:00.444Z,8.83
2023-02-28T00:10:31.943Z,8.83
2023-02-28T00:13:05.605Z,7.23
2023-02-28T00:15:32.896Z,8.30
2023-02-28T00:18:00.130Z,8.90
2023-02-28T00:20:27.789Z,7.50
2023-02-28T00:22:55.435Z,8.40
2023-02-28T00:25:24.610Z,9.30
2023-02-28T00:27:51.909Z,8.60
2023-02-28T00:30:21.229Z,9.67
2023-02-28T00:32:48.343Z,9.13
2023-02-28T00:35:15.375Z,9.40
2023-02-28T00:37:42.533Z,9.40
2023-02-28T00:40:10.511Z,9.77
2023-02-28T00:42:37.456Z,9.43
2023-02-28T00:45:05.781Z,9.20
2023-02-28T00:47:33.195Z,9.43
2023-02-28T00:50:00.677Z,9.47
2023-02-28T00:52:27.960Z,8.07
2023-02-28T00:54:55.477Z,10.90
2023-02-28T00:57:22.251Z,8.60
2023-02-28T00:59:49.098Z,8.23
2023-02-28T01:02:16.207Z,8.00
2023-02-28T01:04:43.290Z,7.80
2023-02-28T01:07:10.557Z,7.70
2023-02-28T01:09:37.414Z,7.70
2023-02-28T01:12:04.439Z,6.90
2023-02-28T01:14:31.172Z,7.63
2023-02-28T01:16:58.274Z,7.80
2023-02-28T01:19:25.402Z,7.97
2023-02-28T01:21:52.523Z,7.80
2023-02-28T01:24:19.552Z,8.50
2023-02-28T01:26:46.614Z,7.47
2023-02-28T01:29:13.758Z,7.77
2023-02-28T01:31:40.941Z,7.40
2023-02-28T01:34:08.069Z,8.63
2023-02-28T01:36:35.193Z,8.23
2023-02-28T01:39:01.899Z,7.83
2023-02-28T01:41:32.662Z,7.90
2023-02-28T01:44:38.056Z,8.10
2023-02-28T01:47:05.162Z,7.90
2023-02-28T01:49:32.278Z,8.37
2023-02-28T01:51:59.385Z,8.47
2023-02-28T01:54:30.524Z,9.63
2023-02-28T01:57:10.867Z,8.50
2023-02-28T01:59:52.936Z,9.17
2023-02-28T02:02:22.759Z,9.00
2023-02-28T02:04:59.813Z,9.90
2023-02-28T02:07:27.578Z,9.40
2023-02-28T02:10:18.833Z,10.30
2023-02-28T02:13:08.513Z,9.87
2023-02-28T02:15:55.318Z,7.73
2023-02-28T02:18:59.632Z,8.57
2023-02-28T02:21:51.053Z,7.80
2023-02-28T02:24:48.437Z,8.43
2023-02-28T02:27:36.429Z,9.00
2023-02-28T02:30:44.361Z,9.60
2023-02-28T02:33:25.709Z,8.90
2023-02-28T02:35:57.682Z,9.37
2023-02-28T02:38:39.619Z,9.30
2023-02-28T02:41:19.862Z,9.20
2023-02-28T02:43:49.666Z,9.07
2023-02-28T02:46:24.690Z,8.47
2023-02-28T02:48:54.625Z,9.37
2023-02-28T02:51:24.060Z,9.43
2023-02-28T02:54:02.911Z,9.37
2023-02-28T02:56:32.600Z,9.57
2023-02-28T02:59:05.297Z,8.70
2023-02-28T03:01:33.334Z,8.80
2023-02-28T03:04:08.164Z,8.93
2023-02-28T03:06:36.185Z,8.50
2023-02-28T03:09:03.823Z,9.37
2023-02-28T03:11:31.945Z,9.97
2023-02-28T03:14:30.773Z,9.47
2023-02-28T03:17:09.372Z,9.27
2023-02-28T03:20:00.378Z,10.10
2023-02-28T03:23:12.298Z,8.80
2023-02-28T03:26:00.510Z,9.13
2023-02-28T03:29:06.413Z,8.57
2023-02-28T03:31:44.764Z,9.30
2023-02-28T03:34:11.890Z,9.40
2023-02-28T03:36:45.062Z,9.03
2023-02-28T03:39:22.841Z,9.40
2023-02-28T03:41:50.675Z,9.87
2023-02-28T03:44:23.122Z,9.03
2023-02-28T03:47:04.845Z,9.53
2023-02-28T03:49:49.588Z,8.30
2023-02-28T03:52:19.683Z,9.20
2023-02-28T03:54:51.116Z,8.80
2023-02-28T03:57:57.616Z,8.80
2023-02-28T04:00:30.760Z,8.90
2023-02-28T04:02:57.876Z,8.60
2023-02-28T04:05:25.701Z,8.97
2023-02-28T04:07:52.831Z,9.00
2023-02-28T04:10:19.733Z,9.00
2023-02-28T04:12:46.803Z,9.40
2023-02-28T04:15:13.636Z,9.10
2023-02-28T04:17:40.706Z,9.23
2023-02-28T04:20:10.600Z,8.87
2023-02-28T04:22:38.355Z,8.17
2023-02-28T04:25:06.576Z,8.80
2023-02-28T04:27:33.510Z,9.03
2023-02-28T04:30:00.308Z,8.90
2023-02-28T04:32:27.508Z,7.90
2023-02-28T04:38:16.799Z,9.60
2023-02-28T04:40:43.876Z,8.83
2023-02-28T04:43:10.965Z,8.77
2023-02-28T04:45:38.082Z,7.83
2023-02-28T04:48:05.203Z,8.60
2023-02-28T04:50:32.310Z,9.17
2023-02-28T04:52:59.666Z,7.97
2023-02-28T04:55:26.822Z,8.30
2023-02-28T04:57:53.953Z,7.17
2023-02-28T05:00:21.167Z,8.87
2023-02-28T05:02:48.320Z,6.50
2023-02-28T05:05:19.072Z,7.27
2023-02-28T05:07:46.269Z,7.80
2023-02-28T05:10:13.630Z,7.90
2023-02-28T05:12:40.836Z,8.30
2023-02-28T05:15:09.426Z,6.80
2023-02-28T05:17:36.523Z,7.70
2023-02-28T05:20:15.052Z,7.17
2023-02-28T05:22:42.769Z,7.20
2023-02-28T05:25:13.775Z,8.20
2023-02-28T05:27:40.903Z,7.97
2023-02-28T05:30:11.306Z,6.60
2023-02-28T05:32:38.973Z,6.47
2023-02-28T05:35:06.119Z,6.07
2023-02-28T05:37:32.992Z,7.17
2023-02-28T05:40:00.244Z,8.80
2023-02-28T05:42:27.382Z,7.07
2023-02-28T05:44:54.542Z,8.53
2023-02-28T05:47:21.619Z,8.63
2023-02-28T05:49:48.783Z,8.77
2023-02-28T05:52:16.111Z,7.80
2023-02-28T05:54:43.240Z,8.90
2023-02-28T05:57:19.083Z,8.60
2023-02-28T05:59:50.969Z,8.60
2023-02-28T06:02:18.478Z,8.53
2023-02-28T06:04:45.796Z,8.40
2023-02-28T06:07:12.560Z,8.97
2023-02-28T06:09:39.731Z,8.30
2023-02-28T06:12:08.129Z,9.40
2023-02-28T06:14:35.491Z,9.00
2023-02-28T06:17:02.896Z,8.67
2023-02-28T06:19:31.071Z,8.27
2023-02-28T06:21:58.283Z,9.00
2023-02-28T06:24:28.872Z,8.60
2023-02-28T06:26:55.956Z,9.00
2023-02-28T06:29:23.064Z,9.20
2023-02-28T06:31:50.269Z,9.60
2023-02-28T06:34:17.503Z,8.33
2023-02-28T06:36:44.844Z,9.80
2023-02-28T06:39:11.936Z,8.10
2023-02-28T06:41:53.618Z,8.60
2023-02-28T06:44:21.667Z,8.07
2023-02-28T06:46:49.104Z,8.07
2023-02-28T06:49:16.456Z,8.20
2023-02-28T06:51:47.872Z,8.60
2023-02-28T06:54:14.808Z,9.43
2023-02-28T06:56:41.970Z,9.67
2023-02-28T06:59:09.198Z,9.10
2023-02-28T07:01:36.366Z,9.67
2023-02-28T07:04:03.292Z,9.93
2023-02-28T07:06:30.443Z,9.97
2023-02-28T07:08:57.179Z,9.90
2023-02-28T07:11:26.899Z,9.93
2023-02-28T07:13:57.892Z,10.13
2023-02-28T07:16:26.290Z,9.83
2023-02-28T07:18:56.817Z,9.67
2023-02-28T07:21:23.876Z,8.60
2023-02-28T07:23:51.046Z,8.73
2023-02-28T07:26:19.847Z,8.93
2023-02-28T07:28:48.508Z,8.33
2023-02-28T07:31:16.847Z,8.87
2023-02-28T07:33:44.231Z,9.03
2023-02-28T07:36:16.080Z,10.40
2023-02-28T07:38:46.449Z,11.93
2023-02-28T07:41:16.528Z,13.77
2023-02-28T07:43:43.337Z,15.07
2023-02-28T07:46:12.665Z,18.70
2023-02-28T07:48:39.735Z,23.77
2023-02-28T07:51:06.499Z,33.03
2023-02-28T07:53:33.520Z,64.63
2023-02-28T07:56:02.885Z,62.80
2023-02-28T07:58:31.022Z,53.13
2023-02-28T08:00:58.479Z,42.43
2023-02-28T08:03:25.940Z,32.20
2023-02-28T08:05:53.680Z,31.13
2023-02-28T08:08:20.356Z,15.00
2023-02-28T08:10:47.188Z,12.97
2023-02-28T08:13:13.887Z,12.50
2023-02-28T08:15:43.825Z,12.20
2023-02-28T08:18:11.065Z,13.73
2023-02-28T08:20:37.954Z,18.00
2023-02-28T08:23:04.791Z,17.20
2023-02-28T08:25:31.487Z,15.20
2023-02-28T08:27:58.216Z,11.90
2023-02-28T08:30:24.932Z,12.33
2023-02-28T08:32:51.816Z,9.97
2023-02-28T08:35:18.725Z,9.07
2023-02-28T08:37:45.769Z,9.97
2023-02-28T08:40:18.922Z,9.50
2023-02-28T08:42:46.307Z,9.77
2023-02-28T08:45:14.702Z,9.33
2023-02-28T08:47:42.072Z,8.93
2023-02-28T08:50:09.360Z,9.07
2023-02-28T08:52:36.151Z,8.93
2023-02-28T08:55:02.970Z,8.57
2023-02-28T08:57:29.741Z,8.40
2023-02-28T08:59:56.510Z,7.27
2023-02-28T09:02:23.249Z,8.00
2023-02-28T09:04:49.971Z,7.93
2023-02-28T09:07:16.934Z,8.17
2023-02-28T09:09:54.716Z,7.03
2023-02-28T09:12:23.313Z,6.80
2023-02-28T09:14:50.130Z,6.50
2023-02-28T09:17:17.207Z,6.60
2023-02-28T09:19:44.239Z,4.90
2023-02-28T09:22:12.159Z,4.90
2023-02-28T09:27:08.099Z,7.20
2023-02-28T09:29:35.602Z,4.97
2023-02-28T09:32:02.990Z,6.10
2023-02-28T09:34:32.958Z,5.53
2023-02-28T09:36:59.808Z,5.30
2023-02-28T09:39:27.796Z,4.93
2023-02-28T09:41:56.351Z,5.93
2023-02-28T09:44:31.946Z,5.13
2023-02-28T09:47:31.667Z,6.10
2023-02-28T09:50:02.017Z,4.17
2023-02-28T09:52:33.570Z,3.80
2023-02-28T09:55:30.636Z,4.50
2023-02-28T09:58:00.845Z,5.03
2023-02-28T10:00:34.957Z,3.83
2023-02-28T10:03:28.792Z,3.00
2023-02-28T10:06:17.733Z,3.43
2023-02-28T10:09:04.480Z,4.50
2023-02-28T10:11:34.384Z,3.37
2023-02-28T10:14:10.589Z,5.00
2023-02-28T10:16:54.626Z,4.17
2023-02-28T10:19:33.888Z,2.83
2023-02-28T10:22:13.435Z,3.80
2023-02-28T10:24:54.780Z,3.30
2023-02-28T10:27:28.838Z,3.10
2023-02-28T10:29:58.234Z,3.77
2023-02-28T10:32:31.060Z,3.50
2023-02-28T10:35:01.351Z,3.17
2023-02-28T10:37:29.215Z,3.50
2023-02-28T10:39:57.277Z,3.77
2023-02-28T10:42:29.739Z,3.53
2023-02-28T10:45:15.955Z,3.03
2023-02-28T10:48:01.848Z,3.43
2023-02-28T10:50:28.704Z,3.73
2023-02-28T10:52:55.913Z,3.80
2023-02-28T10:55:26.824Z,4.23
2023-02-28T10:57:53.817Z,3.70
2023-02-28T11:00:28.832Z,3.67
2023-02-28T11:02:55.752Z,3.60
2023-02-28T11:05:32.784Z,3.27
2023-02-28T11:08:19.090Z,3.10
2023-02-28T11:10:58.732Z,3.60
2023-02-28T11:13:36.706Z,3.20
2023-02-28T11:16:09.866Z,3.50
2023-02-28T11:18:54.739Z,3.10
2023-02-28T11:21:28.541Z,3.53
2023-02-28T11:24:05.068Z,3.07
2023-02-28T11:26:47.254Z,3.97
2023-02-28T11:29:31.913Z,3.70
2023-02-28T11:32:13.990Z,3.27
2023-02-28T11:34:42.474Z,4.17
2023-02-28T11:37:16.428Z,3.53
2023-02-28T11:39:44.580Z,3.70
2023-02-28T11:42:52.854Z,3.70
2023-02-28T11:45:43.757Z,3.30
2023-02-28T11:48:10.850Z,3.40
2023-02-28T11:50:43.252Z,2.93
2023-02-28T11:53:31.699Z,3.70
2023-02-28T11:56:07.314Z,4.70
2023-02-28T11:58:52.084Z,5.80
2023-02-28T12:01:45.450Z,2.73
2023-02-28T12:04:53.259Z,3.60
2023-02-28T12:07:34.062Z,2.77
2023-02-28T12:10:20.825Z,2.97
2023-02-28T12:13:09.337Z,2.93
2023-02-28T12:15:55.483Z,2.70
2023-02-28T12:18:57.646Z,2.53
2023-02-28T12:21:59.325Z,2.83
2023-02-28T12:24:50.236Z,2.10
2023-02-28T12:27:22.716Z,2.67
2023-02-28T12:30:01.967Z,2.60
2023-02-28T12:32:37.633Z,3.00
2023-02-28T12:35:13.700Z,2.50
2023-02-28T12:37:41.138Z,2.63
2023-02-28T12:40:15.034Z,2.70
2023-02-28T12:42:47.271Z,3.20
2023-02-28T12:45:25.923Z,3.50
2023-02-28T12:48:02.278Z,3.37
2023-02-28T12:50:32.314Z,2.67
2023-02-28T12:53:11.924Z,2.77
2023-02-28T12:56:00.868Z,2.60
2023-02-28T12:58:33.451Z,2.73
2023-02-28T13:01:12.300Z,3.00
2023-02-28T13:04:03.821Z,3.70
2023-02-28T13:06:54.778Z,3.00
2023-02-28T13:09:22.335Z,3.27
2023-02-28T13:11:52.030Z,2.57
2023-02-28T13:14:31.413Z,3.20
2023-02-28T13:17:15.801Z,3.40
2023-02-28T13:19:53.115Z,3.90
2023-02-28T13:22:49.169Z,2.77
2023-02-28T13:25:34.081Z,3.30
2023-02-28T13:28:05.024Z,3.20
2023-02-28T13:30:56.985Z,2.93
2023-02-28T13:33:45.274Z,4.13
2023-02-28T13:36:15.380Z,4.40
2023-02-28T13:38:56.348Z,4.27
2023-02-28T13:41:32.349Z,4.10
2023-02-28T13:44:05.077Z,4.00
2023-02-28T13:46:33.967Z,3.60
2023-02-28T13:49:30.245Z,3.70
2023-02-28T13:52:17.390Z,3.90
2023-02-28T13:54:52.772Z,3.20
2023-02-28T13:57:34.407Z,3.20
2023-02-28T14:00:06.457Z,3.87
2023-02-28T14:02:47.203Z,3.47
2023-02-28T14:05:27.213Z,3.40
2023-02-28T14:08:18.609Z,2.80
2023-02-28T14:10:47.888Z,3.30
2023-02-28T14:13:26.556Z,3.03
2023-02-28T14:16:05.255Z,3.30
2023-02-28T14:18:36.936Z,3.27
2023-02-28T14:21:27.341Z,3.20
2023-02-28T14:24:21.347Z,3.70
2023-02-28T14:27:07.219Z,3.40
2023-02-28T14:30:05.570Z,3.60
2023-02-28T14:33:05.332Z,3.50
2023-02-28T14:35:54.766Z,3.10
2023-02-28T14:38:28.845Z,3.10
2023-02-28T14:40:59.374Z,2.90
2023-02-28T14:43:28.081Z,3.50
2023-02-28T14:46:03.469Z,4.23
2023-02-28T14:48:30.528Z,3.20
2023-02-28T14:51:02.068Z,3.50
2023-02-28T14:53:31.615Z,3.60
2023-02-28T14:55:58.460Z,3.43
2023-02-28T14:58:31.362Z,3.53
2023-02-28T15:01:03.834Z,3.50
2023-02-28T15:03:30.933Z,3.40
2023-02-28T15:06:03.270Z,3.50
2023-02-28T15:08:32.736Z,3.00
2023-02-28T15:11:02.542Z,3.47
2023-02-28T15:13:42.754Z,4.10
2023-02-28T15:16:17.492Z,3.83
2023-02-28T15:19:00.261Z,3.80
2023-02-28T15:21:39.992Z,3.60
2023-02-28T15:24:33.719Z,3.90
2023-02-28T15:27:04.494Z,3.50
2023-02-28T15:29:36.337Z,3.73
2023-02-28T15:32:06.813Z,3.63
2023-02-28T15:34:45.609Z,3.60
2023-02-28T15:37:33.864Z,4.50
2023-02-28T15:40:28.336Z,3.37
2023-02-28T15:43:16.602Z,3.83
2023-02-28T15:45:52.410Z,4.33
2023-02-28T15:48:21.284Z,3.90
2023-02-28T15:50:57.183Z,3.83
2023-02-28T15:53:32.458Z,4.20
2023-02-28T15:56:03.298Z,3.83
2023-02-28T15:58:30.638Z,3.57
2023-02-28T16:01:25.897Z,3.43
2023-02-28T16:03:55.966Z,3.97
2023-02-28T16:06:31.766Z,3.40
2023-02-28T16:08:58.919Z,3.70
2023-02-28T16:11:25.999Z,3.67
2023-02-28T16:13:53.792Z,3.30
2023-02-28T16:16:23.494Z,4.30
2023-02-28T16:18:50.522Z,3.70
2023-02-28T16:21:17.726Z,3.50
2023-02-28T16:23:44.678Z,4.50
2023-02-28T16:26:23.367Z,4.07
2023-02-28T16:28:50.884Z,3.93
2023-02-28T16:31:17.744Z,3.80
2023-02-28T16:33:48.607Z,3.80
2023-02-28T16:36:26.092Z,4.43
2023-02-28T16:38:53.352Z,4.10
2023-02-28T16:41:22.471Z,4.30
2023-02-28T16:43:52.329Z,5.10
2023-02-28T16:46:20.479Z,4.60
2023-02-28T16:48:49.644Z,4.30
2023-02-28T16:51:17.430Z,4.20
2023-02-28T16:53:45.560Z,4.63
2023-02-28T16:56:24.704Z,4.87
2023-02-28T16:58:52.036Z,5.00
2023-02-28T17:01:22.837Z,4.60
2023-02-28T17:03:50.904Z,4.33
2023-02-28T17:06:26.712Z,4.80
2023-02-28T17:08:53.477Z,4.90
2023-02-28T17:11:20.868Z,5.10
2023-02-28T17:13:48.937Z,5.00
2023-02-28T17:16:32.270Z,4.60
2023-02-28T17:19:02.194Z,4.90
2023-02-28T17:21:29.894Z,6.63
2023-02-28T17:23:56.971Z,6.80
2023-02-28T17:26:25.664Z,8.27
2023-02-28T17:28:53.453Z,7.77
2023-02-28T17:31:20.623Z,7.90
2023-02-28T17:33:47.787Z,8.20
2023-02-28T17:36:16.354Z,26.17
2023-02-28T17:38:43.474Z,13.00
2023-02-28T17:41:13.330Z,12.93
2023-02-28T17:43:40.441Z,11.70
2023-02-28T17:46:15.590Z,6.40
2023-02-28T17:48:42.755Z,7.20
2023-02-28T17:51:13.273Z,8.10
2023-02-28T17:53:40.131Z,6.47
2023-02-28T17:56:11.917Z,7.27
2023-02-28T17:58:39.010Z,6.40
2023-02-28T18:01:05.974Z,7.17
2023-02-28T18:03:33.129Z,7.07
2023-02-28T18:06:00.397Z,7.20
2023-02-28T18:08:27.552Z,6.97
2023-02-28T18:10:54.300Z,7.83
2023-02-28T18:13:21.432Z,7.40
2023-02-28T18:15:48.626Z,7.80
2023-02-28T18:18:16.690Z,8.03
2023-02-28T18:20:43.866Z,8.73
2023-02-28T18:23:11.016Z,8.73
2023-02-28T18:25:39.007Z,8.80
2023-02-28T18:28:06.133Z,7.80
2023-02-28T18:30:34.438Z,8.47
2023-02-28T18:33:02.217Z,8.67
2023-02-28T18:35:36.087Z,13.27
2023-02-28T18:38:04.777Z,12.70
2023-02-28T18:40:31.888Z,11.83
2023-02-28T18:42:59.070Z,10.23
2023-02-28T18:45:26.209Z,10.70
2023-02-28T18:47:53.339Z,11.30
2023-02-28T18:50:20.538Z,10.57
2023-02-28T18:52:47.739Z,11.80
2023-02-28T18:55:18.762Z,11.30
2023-02-28T18:57:46.963Z,12.33
2023-02-28T19:00:16.011Z,10.77
2023-02-28T19:02:43.014Z,11.70
2023-02-28T19:05:12.266Z,12.00
2023-02-28T19:07:39.175Z,11.60
2023-02-28T19:10:06.533Z,10.97
2023-02-28T19:12:37.146Z,10.70
2023-02-28T19:15:05.840Z,10.80
2023-02-28T19:17:33.227Z,11.07
2023-02-28T19:20:00.416Z,12.10
2023-02-28T19:22:27.647Z,11.17
2023-02-28T19:24:54.761Z,12.57
2023-02-28T19:27:21.525Z,12.90
2023-02-28T19:29:49.835Z,14.63
2023-02-28T19:32:17.121Z,13.77
2023-02-28T19:34:44.134Z,12.37
2023-02-28T19:37:11.329Z,12.20
2023-02-28T19:39:41.229Z,13.40
2023-02-28T19:42:09.316Z,16.80
2023-02-28T19:44:36.444Z,13.03
2023-02-28T19:47:03.778Z,12.57
2023-02-28T19:49:30.721Z,10.97
2023-02-28T19:51:57.862Z,12.00
2023-02-28T19:54:25.405Z,12.27
2023-02-28T19:56:54.416Z,11.17
2023-02-28T19:59:48.481Z,11.07
2023-02-28T20:02:17.858Z,11.00
2023-02-28T20:04:48.767Z,10.13
2023-02-28T20:07:16.540Z,10.17
2023-02-28T20:09:44.897Z,11.17
2023-02-28T20:12:23.475Z,9.77
2023-02-28T20:14:51.230Z,9.27
2023-02-28T20:17:18.386Z,9.63
2023-02-28T20:19:45.445Z,10.60
2023-02-28T20:22:12.642Z,11.20
2023-02-28T20:24:39.875Z,10.37
2023-02-28T20:27:06.996Z,9.83
2023-02-28T20:29:34.745Z,10.63
2023-02-28T20:32:02.168Z,10.03
2023-02-28T20:34:29.376Z,10.87
2023-02-28T20:36:59.617Z,13.03
2023-02-28T20:39:26.598Z,11.27
2023-02-28T20:41:53.733Z,12.43
2023-02-28T20:44:20.638Z,10.83
2023-02-28T20:46:47.802Z,11.37
2023-02-28T20:49:15.730Z,12.10
2023-02-28T20:51:42.551Z,11.30
2023-02-28T20:54:11.737Z,11.80
2023-02-28T20:56:39.303Z,11.33
2023-02-28T20:59:06.461Z,10.77
2023-02-28T21:01:33.758Z,10.80
2023-02-28T21:04:03.391Z,10.97
2023-02-28T21:06:37.216Z,11.17
2023-02-28T21:09:08.491Z,11.00
2023-02-28T21:11:37.395Z,10.40
2023-02-28T21:14:06.758Z,10.43
2023-02-28T21:16:36.521Z,9.53
2023-02-28T21:19:04.765Z,10.33
2023-02-28T21:21:38.512Z,9.77
2023-02-28T21:24:06.149Z,10.80
2023-02-28T21:26:33.547Z,10.17
2023-02-28T21:29:02.002Z,9.97
2023-02-28T21:31:31.879Z,10.50
2023-02-28T21:34:00.055Z,9.70
2023-02-28T21:36:35.142Z,10.70
2023-02-28T21:39:11.916Z,9.80
2023-02-28T21:41:38.693Z,8.90
2023-02-28T21:44:05.652Z,10.00
2023-02-28T21:46:33.323Z,10.13
2023-02-28T21:49:00.415Z,10.20
2023-02-28T21:51:32.655Z,10.10
2023-02-28T21:54:00.459Z,9.10
2023-02-28T21:56:30.511Z,10.60
2023-02-28T21:59:01.052Z,10.70
2023-02-28T22:01:32.610Z,12.50
2023-02-28T22:03:59.735Z,12.83
2023-02-28T22:06:29.874Z,11.83
2023-02-28T22:08:58.745Z,12.23
2023-02-28T22:11:26.488Z,11.03
2023-02-28T22:13:57.857Z,11.93
2023-02-28T22:16:29.496Z,11.80
2023-02-28T22:18:58.449Z,11.37
2023-02-28T22:21:25.643Z,11.47
2023-02-28T22:23:53.007Z,11.70
2023-02-28T22:26:21.833Z,10.47
2023-02-28T22:28:49.953Z,12.97
2023-02-28T22:31:17.167Z,12.10
2023-02-28T22:33:45.071Z,10.53
2023-02-28T22:36:14.739Z,10.83
2023-02-28T22:38:54.434Z,11.50
2023-02-28T22:41:23.676Z,11.70
2023-02-28T22:43:56.312Z,12.47
2023-02-28T22:46:24.488Z,10.50
2023-02-28T22:48:51.437Z,10.20
2023-02-28T22:51:24.002Z,11.77
2023-02-28T22:53:52.066Z,12.53
2023-02-28T22:56:21.219Z,13.90
2023-02-28T22:58:52.785Z,12.37
2023-02-28T23:01:20.817Z,14.00
2023-02-28T23:03:48.416Z,17.60
2023-02-28T23:06:38.017Z,14.10
2023-02-28T23:09:07.502Z,12.63
2023-02-28T23:11:37.976Z,13.03
2023-02-28T23:14:05.436Z,12.47
2023-02-28T23:16:36.234Z,13.97
2023-02-28T23:19:06.324Z,13.10
2023-02-28T23:21:34.278Z,13.70
2023-02-28T23:24:05.251Z,12.07
2023-02-28T23:26:33.297Z,14.10
2023-02-28T23:29:01.206Z,14.27
2023-02-28T23:31:28.423Z,14.43
2023-02-28T23:33:56.556Z,13.80
2023-02-28T23:36:23.547Z,13.33
2023-02-28T23:38:51.987Z,15.20
2023-02-28T23:41:20.043Z,14.03
2023-02-28T23:43:47.213Z,14.00
2023-02-28T23:46:14.842Z,13.57
2023-02-28T23:48:42.350Z,13.40
2023-02-28T23:51:14.219Z,15.53
2023-02-28T23:53:43.594Z,14.73
2023-02-28T23:56:14.713Z,14.90
2023-02-28T23:58:45.848Z,15.90
